sensor_id;sensor_type;location;lat;lon;timestamp;temperature;humidity
67641;SHT31;54434;50.096;20.082;2023-06-14T00:00:37;11.93;81.83
67641;SHT31;54434;50.096;20.082;2023-06-14T00:03:35;11.93;81.88
67641;SHT31;54434;50.096;20.082;2023-06-14T00:06:11;11.94;81.98
67641;SHT31;54434;50.096;20.082;2023-06-14T00:08:47;11.97;82.05
67641;SHT31;54434;50.096;20.082;2023-06-14T00:11:24;11.98;82.17
67641;SHT31;54434;50.096;20.082;2023-06-14T00:14:02;11.99;82.22
67641;SHT31;54434;50.096;20.082;2023-06-14T00:16:39;12.02;82.22
67641;SHT31;54434;50.096;20.082;2023-06-14T00:19:15;12.04;82.24
67641;SHT31;54434;50.096;20.082;2023-06-14T00:21:52;12.06;82.30
67641;SHT31;54434;50.096;20.082;2023-06-14T00:24:29;12.08;82.35
67641;SHT31;54434;50.096;20.082;2023-06-14T00:27:06;12.08;82.47
67641;SHT31;54434;50.096;20.082;2023-06-14T00:29:43;12.06;82.66
67641;SHT31;54434;50.096;20.082;2023-06-14T00:32:20;12.06;82.75
67641;SHT31;54434;50.096;20.082;2023-06-14T00:35:00;12.04;82.96
67641;SHT31;54434;50.096;20.082;2023-06-14T00:37:37;12.06;82.95
67641;SHT31;54434;50.096;20.082;2023-06-14T00:40:14;12.06;83.09
67641;SHT31;54434;50.096;20.082;2023-06-14T00:42:51;12.06;83.12
67641;SHT31;54434;50.096;20.082;2023-06-14T00:45:27;12.06;83.17
67641;SHT31;54434;50.096;20.082;2023-06-14T00:48:07;12.06;83.20
67641;SHT31;54434;50.096;20.082;2023-06-14T00:50:48;12.06;83.28
67641;SHT31;54434;50.096;20.082;2023-06-14T00:53:27;12.05;83.38
67641;SHT31;54434;50.096;20.082;2023-06-14T00:56:06;12.06;83.34
67641;SHT31;54434;50.096;20.082;2023-06-14T00:58:46;12.06;83.42
67641;SHT31;54434;50.096;20.082;2023-06-14T01:01:23;12.05;83.44
67641;SHT31;54434;50.096;20.082;2023-06-14T01:04:00;12.06;83.51
67641;SHT31;54434;50.096;20.082;2023-06-14T01:06:42;12.06;83.57
67641;SHT31;54434;50.096;20.082;2023-06-14T01:09:37;12.08;83.59
67641;SHT31;54434;50.096;20.082;2023-06-14T01:12:31;12.10;83.60
67641;SHT31;54434;50.096;20.082;2023-06-14T01:15:19;12.12;83.52
67641;SHT31;54434;50.096;20.082;2023-06-14T01:17:57;12.15;83.44
67641;SHT31;54434;50.096;20.082;2023-06-14T01:20:35;12.18;83.43
67641;SHT31;54434;50.096;20.082;2023-06-14T01:23:12;12.19;83.38
67641;SHT31;54434;50.096;20.082;2023-06-14T01:25:49;12.20;83.43
67641;SHT31;54434;50.096;20.082;2023-06-14T01:28:26;12.23;83.47
67641;SHT31;54434;50.096;20.082;2023-06-14T01:31:05;12.23;83.42
67641;SHT31;54434;50.096;20.082;2023-06-14T01:33:44;12.25;83.53
67641;SHT31;54434;50.096;20.082;2023-06-14T01:36:22;12.24;83.68
67641;SHT31;54434;50.096;20.082;2023-06-14T01:39:01;12.20;83.82
67641;SHT31;54434;50.096;20.082;2023-06-14T01:41:40;12.19;83.85
67641;SHT31;54434;50.096;20.082;2023-06-14T01:44:18;12.18;83.96
67641;SHT31;54434;50.096;20.082;2023-06-14T01:46:56;12.19;84.00
67641;SHT31;54434;50.096;20.082;2023-06-14T01:49:34;12.22;84.00
67641;SHT31;54434;50.096;20.082;2023-06-14T01:52:13;12.23;84.00
67641;SHT31;54434;50.096;20.082;2023-06-14T01:54:51;12.27;84.09
67641;SHT31;54434;50.096;20.082;2023-06-14T01:57:27;12.28;84.10
67641;SHT31;54434;50.096;20.082;2023-06-14T02:00:05;12.30;84.11
67641;SHT31;54434;50.096;20.082;2023-06-14T02:02:45;12.32;84.13
67641;SHT31;54434;50.096;20.082;2023-06-14T02:05:21;12.33;84.21
67641;SHT31;54434;50.096;20.082;2023-06-14T02:07:58;12.33;84.30
67641;SHT31;54434;50.096;20.082;2023-06-14T02:10:35;12.34;84.31
67641;SHT31;54434;50.096;20.082;2023-06-14T02:13:11;12.36;84.31
67641;SHT31;54434;50.096;20.082;2023-06-14T02:15:48;12.37;84.27
67641;SHT31;54434;50.096;20.082;2023-06-14T02:18:26;12.40;84.30
67641;SHT31;54434;50.096;20.082;2023-06-14T02:21:04;12.40;84.27
67641;SHT31;54434;50.096;20.082;2023-06-14T02:23:40;12.41;84.18
67641;SHT31;54434;50.096;20.082;2023-06-14T02:26:16;12.44;84.20
67641;SHT31;54434;50.096;20.082;2023-06-14T02:28:54;12.43;84.15
67641;SHT31;54434;50.096;20.082;2023-06-14T02:31:30;12.42;84.10
67641;SHT31;54434;50.096;20.082;2023-06-14T02:34:08;12.44;84.20
67641;SHT31;54434;50.096;20.082;2023-06-14T02:36:44;12.45;84.19
67641;SHT31;54434;50.096;20.082;2023-06-14T02:39:21;12.47;84.19
67641;SHT31;54434;50.096;20.082;2023-06-14T02:41:58;12.49;84.18
67641;SHT31;54434;50.096;20.082;2023-06-14T02:44:34;12.51;84.19
67641;SHT31;54434;50.096;20.082;2023-06-14T02:47:11;12.51;84.19
67641;SHT31;54434;50.096;20.082;2023-06-14T02:49:48;12.52;84.20
67641;SHT31;54434;50.096;20.082;2023-06-14T02:52:24;12.54;84.20
67641;SHT31;54434;50.096;20.082;2023-06-14T02:55:01;12.56;84.20
67641;SHT31;54434;50.096;20.082;2023-06-14T02:57:40;12.57;84.30
67641;SHT31;54434;50.096;20.082;2023-06-14T03:00:17;12.58;84.27
67641;SHT31;54434;50.096;20.082;2023-06-14T03:02:55;12.59;84.20
67641;SHT31;54434;50.096;20.082;2023-06-14T03:05:33;12.59;84.21
67641;SHT31;54434;50.096;20.082;2023-06-14T03:08:12;12.62;84.30
67641;SHT31;54434;50.096;20.082;2023-06-14T03:10:51;12.63;84.27
67641;SHT31;54434;50.096;20.082;2023-06-14T03:13:29;12.64;84.25
67641;SHT31;54434;50.096;20.082;2023-06-14T03:16:07;12.65;84.30
67641;SHT31;54434;50.096;20.082;2023-06-14T03:18:43;12.66;84.29
67641;SHT31;54434;50.096;20.082;2023-06-14T03:21:20;12.68;84.30
67641;SHT31;54434;50.096;20.082;2023-06-14T03:23:58;12.69;84.30
67641;SHT31;54434;50.096;20.082;2023-06-14T03:26:35;12.71;84.31
67641;SHT31;54434;50.096;20.082;2023-06-14T03:29:13;12.73;84.37
67641;SHT31;54434;50.096;20.082;2023-06-14T03:31:59;12.75;84.40
67641;SHT31;54434;50.096;20.082;2023-06-14T03:34:40;12.78;84.40
67641;SHT31;54434;50.096;20.082;2023-06-14T03:37:22;12.81;84.40
67641;SHT31;54434;50.096;20.082;2023-06-14T03:39:59;12.83;84.40
67641;SHT31;54434;50.096;20.082;2023-06-14T03:42:40;12.85;84.47
67641;SHT31;54434;50.096;20.082;2023-06-14T03:45:17;12.87;84.50
67641;SHT31;54434;50.096;20.082;2023-06-14T03:47:54;12.89;84.41
67641;SHT31;54434;50.096;20.082;2023-06-14T03:50:34;12.90;84.40
67641;SHT31;54434;50.096;20.082;2023-06-14T03:53:10;12.89;84.35
67641;SHT31;54434;50.096;20.082;2023-06-14T03:55:51;12.90;84.36
67641;SHT31;54434;50.096;20.082;2023-06-14T03:58:32;12.91;84.40
67641;SHT31;54434;50.096;20.082;2023-06-14T04:01:10;12.91;84.41
67641;SHT31;54434;50.096;20.082;2023-06-14T04:03:46;12.94;84.41
67641;SHT31;54434;50.096;20.082;2023-06-14T04:06:23;12.95;84.41
67641;SHT31;54434;50.096;20.082;2023-06-14T04:09:04;12.98;84.45
67641;SHT31;54434;50.096;20.082;2023-06-14T04:11:40;12.99;84.40
67641;SHT31;54434;50.096;20.082;2023-06-14T04:14:17;13.02;84.42
67641;SHT31;54434;50.096;20.082;2023-06-14T04:16:54;13.03;84.53
67641;SHT31;54434;50.096;20.082;2023-06-14T04:19:30;13.04;84.46
67641;SHT31;54434;50.096;20.082;2023-06-14T04:22:08;13.06;84.51
67641;SHT31;54434;50.096;20.082;2023-06-14T04:24:44;13.07;84.51
67641;SHT31;54434;50.096;20.082;2023-06-14T04:27:35;13.10;84.62
67641;SHT31;54434;50.096;20.082;2023-06-14T04:30:14;13.12;84.65
67641;SHT31;54434;50.096;20.082;2023-06-14T04:32:54;13.14;84.67
67641;SHT31;54434;50.096;20.082;2023-06-14T04:35:32;13.16;84.57
67641;SHT31;54434;50.096;20.082;2023-06-14T04:38:09;13.18;84.47
67641;SHT31;54434;50.096;20.082;2023-06-14T04:40:48;13.21;84.37
67641;SHT31;54434;50.096;20.082;2023-06-14T04:43:25;13.23;84.16
67641;SHT31;54434;50.096;20.082;2023-06-14T04:46:03;13.23;84.04
67641;SHT31;54434;50.096;20.082;2023-06-14T04:48:43;13.24;84.00
67641;SHT31;54434;50.096;20.082;2023-06-14T04:51:20;13.27;84.00
67641;SHT31;54434;50.096;20.082;2023-06-14T04:54:01;13.23;83.92
67641;SHT31;54434;50.096;20.082;2023-06-14T04:56:42;13.21;83.74
67641;SHT31;54434;50.096;20.082;2023-06-14T04:59:19;13.20;83.73
67641;SHT31;54434;50.096;20.082;2023-06-14T05:01:56;13.20;83.75
67641;SHT31;54434;50.096;20.082;2023-06-14T05:04:32;13.22;83.69
67641;SHT31;54434;50.096;20.082;2023-06-14T05:07:11;13.26;83.62
67641;SHT31;54434;50.096;20.082;2023-06-14T05:09:48;13.30;83.50
67641;SHT31;54434;50.096;20.082;2023-06-14T05:12:25;13.36;83.38
67641;SHT31;54434;50.096;20.082;2023-06-14T05:15:02;13.44;83.34
67641;SHT31;54434;50.096;20.082;2023-06-14T05:17:42;13.51;83.25
67641;SHT31;54434;50.096;20.082;2023-06-14T05:20:25;13.54;83.25
67641;SHT31;54434;50.096;20.082;2023-06-14T05:23:02;13.57;83.12
67641;SHT31;54434;50.096;20.082;2023-06-14T05:25:39;13.56;82.99
67641;SHT31;54434;50.096;20.082;2023-06-14T05:28:16;13.58;83.05
67641;SHT31;54434;50.096;20.082;2023-06-14T05:30:53;13.59;82.97
67641;SHT31;54434;50.096;20.082;2023-06-14T05:33:30;13.59;83.11
67641;SHT31;54434;50.096;20.082;2023-06-14T05:36:07;13.57;83.00
67641;SHT31;54434;50.096;20.082;2023-06-14T05:38:44;13.54;83.05
67641;SHT31;54434;50.096;20.082;2023-06-14T05:41:22;13.53;82.97
67641;SHT31;54434;50.096;20.082;2023-06-14T05:43:59;13.49;82.93
67641;SHT31;54434;50.096;20.082;2023-06-14T05:46:36;13.47;83.03
67641;SHT31;54434;50.096;20.082;2023-06-14T05:49:13;13.43;83.25
67641;SHT31;54434;50.096;20.082;2023-06-14T05:51:49;13.35;83.28
67641;SHT31;54434;50.096;20.082;2023-06-14T05:54:26;13.27;83.46
67641;SHT31;54434;50.096;20.082;2023-06-14T05:57:02;13.25;83.52
67641;SHT31;54434;50.096;20.082;2023-06-14T05:59:40;13.24;83.60
67641;SHT31;54434;50.096;20.082;2023-06-14T06:02:16;13.24;83.62
67641;SHT31;54434;50.096;20.082;2023-06-14T06:04:53;13.25;83.65
67641;SHT31;54434;50.096;20.082;2023-06-14T06:07:29;13.28;83.67
67641;SHT31;54434;50.096;20.082;2023-06-14T06:10:10;13.30;83.67
67641;SHT31;54434;50.096;20.082;2023-06-14T06:12:47;13.34;83.71
67641;SHT31;54434;50.096;20.082;2023-06-14T06:15:23;13.38;83.66
67641;SHT31;54434;50.096;20.082;2023-06-14T06:18:00;13.39;83.59
67641;SHT31;54434;50.096;20.082;2023-06-14T06:20:37;13.41;83.58
67641;SHT31;54434;50.096;20.082;2023-06-14T06:23:13;13.46;83.63
67641;SHT31;54434;50.096;20.082;2023-06-14T06:25:50;13.48;83.69
67641;SHT31;54434;50.096;20.082;2023-06-14T06:28:26;13.52;83.69
67641;SHT31;54434;50.096;20.082;2023-06-14T06:31:03;13.57;83.55
67641;SHT31;54434;50.096;20.082;2023-06-14T06:33:39;13.60;83.49
67641;SHT31;54434;50.096;20.082;2023-06-14T06:36:16;13.64;83.50
67641;SHT31;54434;50.096;20.082;2023-06-14T06:38:53;13.68;83.34
67641;SHT31;54434;50.096;20.082;2023-06-14T06:41:29;13.73;83.20
67641;SHT31;54434;50.096;20.082;2023-06-14T06:44:06;13.78;83.08
67641;SHT31;54434;50.096;20.082;2023-06-14T06:46:44;13.80;82.97
67641;SHT31;54434;50.096;20.082;2023-06-14T06:49:21;13.81;82.97
67641;SHT31;54434;50.096;20.082;2023-06-14T06:52:04;13.79;82.93
67641;SHT31;54434;50.096;20.082;2023-06-14T06:54:42;13.79;82.81
67641;SHT31;54434;50.096;20.082;2023-06-14T06:57:18;13.78;82.59
67641;SHT31;54434;50.096;20.082;2023-06-14T06:59:55;13.76;82.52
67641;SHT31;54434;50.096;20.082;2023-06-14T07:02:33;13.74;82.59
67641;SHT31;54434;50.096;20.082;2023-06-14T07:05:09;13.75;82.72
67641;SHT31;54434;50.096;20.082;2023-06-14T07:07:47;13.74;82.76
67641;SHT31;54434;50.096;20.082;2023-06-14T07:10:24;13.71;82.92
67641;SHT31;54434;50.096;20.082;2023-06-14T07:13:01;13.70;83.05
67641;SHT31;54434;50.096;20.082;2023-06-14T07:15:41;13.66;82.98
67641;SHT31;54434;50.096;20.082;2023-06-14T07:18:17;13.63;83.12
67641;SHT31;54434;50.096;20.082;2023-06-14T07:20:54;13.59;83.23
67641;SHT31;54434;50.096;20.082;2023-06-14T07:23:31;13.56;83.47
67641;SHT31;54434;50.096;20.082;2023-06-14T07:26:08;13.51;83.67
67641;SHT31;54434;50.096;20.082;2023-06-14T07:28:45;13.47;83.80
67641;SHT31;54434;50.096;20.082;2023-06-14T07:31:23;13.43;83.93
67641;SHT31;54434;50.096;20.082;2023-06-14T07:34:00;13.43;83.99
67641;SHT31;54434;50.096;20.082;2023-06-14T07:36:37;13.48;84.06
67641;SHT31;54434;50.096;20.082;2023-06-14T07:39:16;13.50;84.06
67641;SHT31;54434;50.096;20.082;2023-06-14T07:41:53;13.53;84.07
67641;SHT31;54434;50.096;20.082;2023-06-14T07:44:30;13.57;84.01
67641;SHT31;54434;50.096;20.082;2023-06-14T07:47:08;13.59;83.93
67641;SHT31;54434;50.096;20.082;2023-06-14T07:49:44;13.60;84.05
67641;SHT31;54434;50.096;20.082;2023-06-14T07:52:21;13.62;83.87
67641;SHT31;54434;50.096;20.082;2023-06-14T07:54:57;13.65;83.99
67641;SHT31;54434;50.096;20.082;2023-06-14T07:57:34;13.68;84.02
67641;SHT31;54434;50.096;20.082;2023-06-14T08:00:12;13.69;84.04
67641;SHT31;54434;50.096;20.082;2023-06-14T08:02:51;13.69;84.16
67641;SHT31;54434;50.096;20.082;2023-06-14T08:05:32;13.69;84.19
67641;SHT31;54434;50.096;20.082;2023-06-14T08:08:08;13.72;84.15
67641;SHT31;54434;50.096;20.082;2023-06-14T08:10:45;13.76;84.06
67641;SHT31;54434;50.096;20.082;2023-06-14T08:13:22;13.77;84.00
67641;SHT31;54434;50.096;20.082;2023-06-14T08:15:58;13.78;84.03
67641;SHT31;54434;50.096;20.082;2023-06-14T08:18:36;13.77;84.12
67641;SHT31;54434;50.096;20.082;2023-06-14T08:21:13;13.79;84.21
67641;SHT31;54434;50.096;20.082;2023-06-14T08:23:50;13.78;84.11
67641;SHT31;54434;50.096;20.082;2023-06-14T08:26:26;13.79;84.19
67641;SHT31;54434;50.096;20.082;2023-06-14T08:29:03;13.79;84.25
67641;SHT31;54434;50.096;20.082;2023-06-14T08:31:40;13.80;84.21
67641;SHT31;54434;50.096;20.082;2023-06-14T08:34:17;13.82;84.20
67641;SHT31;54434;50.096;20.082;2023-06-14T08:36:55;13.84;84.08
67641;SHT31;54434;50.096;20.082;2023-06-14T08:39:33;13.83;84.12
67641;SHT31;54434;50.096;20.082;2023-06-14T08:42:10;13.83;84.10
67641;SHT31;54434;50.096;20.082;2023-06-14T08:45:02;13.85;84.09
67641;SHT31;54434;50.096;20.082;2023-06-14T08:47:40;13.84;84.04
67641;SHT31;54434;50.096;20.082;2023-06-14T08:50:17;13.81;84.05
67641;SHT31;54434;50.096;20.082;2023-06-14T08:53:01;13.81;83.97
67641;SHT31;54434;50.096;20.082;2023-06-14T08:55:42;13.80;83.87
67641;SHT31;54434;50.096;20.082;2023-06-14T08:58:19;13.81;84.02
67641;SHT31;54434;50.096;20.082;2023-06-14T09:00:56;13.82;84.09
67641;SHT31;54434;50.096;20.082;2023-06-14T09:03:34;13.81;84.22
67641;SHT31;54434;50.096;20.082;2023-06-14T09:06:12;13.81;84.28
67641;SHT31;54434;50.096;20.082;2023-06-14T09:08:50;13.82;84.30
67641;SHT31;54434;50.096;20.082;2023-06-14T09:11:29;13.79;84.34
67641;SHT31;54434;50.096;20.082;2023-06-14T09:14:07;13.80;84.40
67641;SHT31;54434;50.096;20.082;2023-06-14T09:16:44;13.83;84.39
67641;SHT31;54434;50.096;20.082;2023-06-14T09:19:25;13.81;84.29
67641;SHT31;54434;50.096;20.082;2023-06-14T09:22:04;13.82;84.37
67641;SHT31;54434;50.096;20.082;2023-06-14T09:24:44;13.85;84.40
67641;SHT31;54434;50.096;20.082;2023-06-14T09:27:20;13.85;84.31
67641;SHT31;54434;50.096;20.082;2023-06-14T09:29:58;13.89;84.38
67641;SHT31;54434;50.096;20.082;2023-06-14T09:32:36;13.93;84.28
67641;SHT31;54434;50.096;20.082;2023-06-14T09:35:14;13.97;84.29
67641;SHT31;54434;50.096;20.082;2023-06-14T09:37:54;14.02;84.32
67641;SHT31;54434;50.096;20.082;2023-06-14T09:40:34;14.05;84.24
67641;SHT31;54434;50.096;20.082;2023-06-14T09:43:11;14.13;84.23
67641;SHT31;54434;50.096;20.082;2023-06-14T09:45:48;14.21;84.28
67641;SHT31;54434;50.096;20.082;2023-06-14T09:48:25;14.24;84.17
67641;SHT31;54434;50.096;20.082;2023-06-14T09:51:02;14.25;84.17
67641;SHT31;54434;50.096;20.082;2023-06-14T09:53:39;14.28;84.05
67641;SHT31;54434;50.096;20.082;2023-06-14T09:56:21;14.30;83.95
67641;SHT31;54434;50.096;20.082;2023-06-14T09:59:04;14.29;83.97
67641;SHT31;54434;50.096;20.082;2023-06-14T10:01:46;14.30;84.06
67641;SHT31;54434;50.096;20.082;2023-06-14T10:04:23;14.31;84.12
67641;SHT31;54434;50.096;20.082;2023-06-14T10:07:03;14.34;84.01
67641;SHT31;54434;50.096;20.082;2023-06-14T10:09:41;14.35;84.04
67641;SHT31;54434;50.096;20.082;2023-06-14T10:12:21;14.33;84.05
67641;SHT31;54434;50.096;20.082;2023-06-14T10:14:58;14.33;83.99
67641;SHT31;54434;50.096;20.082;2023-06-14T10:17:40;14.36;83.97
67641;SHT31;54434;50.096;20.082;2023-06-14T10:20:28;14.45;84.05
67641;SHT31;54434;50.096;20.082;2023-06-14T10:23:15;14.48;83.87
67641;SHT31;54434;50.096;20.082;2023-06-14T10:25:58;14.48;83.80
67641;SHT31;54434;50.096;20.082;2023-06-14T10:28:34;14.52;83.75
67641;SHT31;54434;50.096;20.082;2023-06-14T10:31:13;14.59;83.73
67641;SHT31;54434;50.096;20.082;2023-06-14T10:33:56;14.69;83.78
67641;SHT31;54434;50.096;20.082;2023-06-14T10:36:32;14.81;83.52
67641;SHT31;54434;50.096;20.082;2023-06-14T10:39:10;14.95;83.39
67641;SHT31;54434;50.096;20.082;2023-06-14T10:41:55;15.07;83.20
67641;SHT31;54434;50.096;20.082;2023-06-14T10:44:44;15.15;82.85
67641;SHT31;54434;50.096;20.082;2023-06-14T10:47:26;15.20;82.78
67641;SHT31;54434;50.096;20.082;2023-06-14T10:50:08;15.23;82.49
67641;SHT31;54434;50.096;20.082;2023-06-14T10:52:48;15.22;82.37
67641;SHT31;54434;50.096;20.082;2023-06-14T10:55:24;15.23;82.37
67641;SHT31;54434;50.096;20.082;2023-06-14T10:58:07;15.28;82.44
67641;SHT31;54434;50.096;20.082;2023-06-14T11:00:44;15.39;82.25
67641;SHT31;54434;50.096;20.082;2023-06-14T11:03:43;15.52;81.84
67641;SHT31;54434;50.096;20.082;2023-06-14T11:06:25;15.67;81.54
67641;SHT31;54434;50.096;20.082;2023-06-14T11:09:47;15.83;81.30
67641;SHT31;54434;50.096;20.082;2023-06-14T11:12:38;15.98;81.15
67641;SHT31;54434;50.096;20.082;2023-06-14T11:15:18;16.21;81.06
67641;SHT31;54434;50.096;20.082;2023-06-14T11:18:01;16.38;80.35
67641;SHT31;54434;50.096;20.082;2023-06-14T11:20:41;16.54;79.92
67641;SHT31;54434;50.096;20.082;2023-06-14T11:23:20;16.69;79.75
67641;SHT31;54434;50.096;20.082;2023-06-14T11:25:57;16.79;79.03
67641;SHT31;54434;50.096;20.082;2023-06-14T11:28:39;16.87;78.77
67641;SHT31;54434;50.096;20.082;2023-06-14T11:31:15;16.90;78.49
67641;SHT31;54434;50.096;20.082;2023-06-14T11:33:56;16.90;78.13
67641;SHT31;54434;50.096;20.082;2023-06-14T11:36:35;16.86;77.84
67641;SHT31;54434;50.096;20.082;2023-06-14T11:39:13;16.80;77.43
67641;SHT31;54434;50.096;20.082;2023-06-14T11:41:50;16.78;77.93
67641;SHT31;54434;50.096;20.082;2023-06-14T11:44:27;16.83;78.05
67641;SHT31;54434;50.096;20.082;2023-06-14T11:47:07;16.85;77.55
67641;SHT31;54434;50.096;20.082;2023-06-14T11:49:44;16.89;77.56
67641;SHT31;54434;50.096;20.082;2023-06-14T11:52:20;16.91;76.49
67641;SHT31;54434;50.096;20.082;2023-06-14T11:54:57;16.96;76.79
67641;SHT31;54434;50.096;20.082;2023-06-14T11:57:36;17.08;76.32
67641;SHT31;54434;50.096;20.082;2023-06-14T12:00:16;17.17;75.62
67641;SHT31;54434;50.096;20.082;2023-06-14T12:02:58;17.40;76.11
67641;SHT31;54434;50.096;20.082;2023-06-14T12:05:35;17.53;74.78
67641;SHT31;54434;50.096;20.082;2023-06-14T12:08:11;17.64;74.54
67641;SHT31;54434;50.096;20.082;2023-06-14T12:10:52;17.70;73.90
67641;SHT31;54434;50.096;20.082;2023-06-14T12:13:29;17.79;73.40
67641;SHT31;54434;50.096;20.082;2023-06-14T12:16:06;17.85;73.14
67641;SHT31;54434;50.096;20.082;2023-06-14T12:18:44;17.98;73.64
67641;SHT31;54434;50.096;20.082;2023-06-14T12:21:23;18.09;73.80
67641;SHT31;54434;50.096;20.082;2023-06-14T12:24:03;18.14;72.54
67641;SHT31;54434;50.096;20.082;2023-06-14T12:26:41;18.14;72.96
67641;SHT31;54434;50.096;20.082;2023-06-14T12:29:20;18.08;72.98
67641;SHT31;54434;50.096;20.082;2023-06-14T12:31:57;17.99;72.86
67641;SHT31;54434;50.096;20.082;2023-06-14T12:34:33;17.89;73.04
67641;SHT31;54434;50.096;20.082;2023-06-14T12:37:10;17.86;73.30
67641;SHT31;54434;50.096;20.082;2023-06-14T12:39:46;17.85;73.16
67641;SHT31;54434;50.096;20.082;2023-06-14T12:42:23;17.79;72.73
67641;SHT31;54434;50.096;20.082;2023-06-14T12:45:00;17.81;72.83
67641;SHT31;54434;50.096;20.082;2023-06-14T12:47:38;17.84;72.07
67641;SHT31;54434;50.096;20.082;2023-06-14T12:50:15;17.96;72.04
67641;SHT31;54434;50.096;20.082;2023-06-14T12:52:56;18.06;72.07
67641;SHT31;54434;50.096;20.082;2023-06-14T12:55:33;18.33;71.94
67641;SHT31;54434;50.096;20.082;2023-06-14T12:58:09;18.48;70.69
67641;SHT31;54434;50.096;20.082;2023-06-14T13:00:46;18.48;70.07
67641;SHT31;54434;50.096;20.082;2023-06-14T13:03:22;18.47;70.03
67641;SHT31;54434;50.096;20.082;2023-06-14T13:05:59;18.66;70.44
67641;SHT31;54434;50.096;20.082;2023-06-14T13:08:37;18.77;68.54
67641;SHT31;54434;50.096;20.082;2023-06-14T13:11:13;18.88;68.99
67641;SHT31;54434;50.096;20.082;2023-06-14T13:13:49;18.86;68.13
67641;SHT31;54434;50.096;20.082;2023-06-14T13:16:26;18.95;69.37
67641;SHT31;54434;50.096;20.082;2023-06-14T13:19:03;18.90;67.98
67641;SHT31;54434;50.096;20.082;2023-06-14T13:21:40;18.75;67.68
67641;SHT31;54434;50.096;20.082;2023-06-14T13:24:16;18.55;67.62
67641;SHT31;54434;50.096;20.082;2023-06-14T13:26:53;18.45;68.24
67641;SHT31;54434;50.096;20.082;2023-06-14T13:29:29;18.48;68.47
67641;SHT31;54434;50.096;20.082;2023-06-14T13:32:09;18.60;68.96
67641;SHT31;54434;50.096;20.082;2023-06-14T13:34:45;18.58;67.86
67641;SHT31;54434;50.096;20.082;2023-06-14T13:37:22;18.52;68.58
67641;SHT31;54434;50.096;20.082;2023-06-14T13:39:58;18.34;68.00
67641;SHT31;54434;50.096;20.082;2023-06-14T13:42:35;18.12;68.54
67641;SHT31;54434;50.096;20.082;2023-06-14T13:45:13;17.96;68.75
67641;SHT31;54434;50.096;20.082;2023-06-14T13:47:50;17.88;68.66
67641;SHT31;54434;50.096;20.082;2023-06-14T13:50:27;17.83;69.13
67641;SHT31;54434;50.096;20.082;2023-06-14T13:53:03;17.77;69.16
67641;SHT31;54434;50.096;20.082;2023-06-14T13:55:42;17.85;70.07
67641;SHT31;54434;50.096;20.082;2023-06-14T13:58:19;17.99;70.01
67641;SHT31;54434;50.096;20.082;2023-06-14T14:00:57;18.11;69.91
67641;SHT31;54434;50.096;20.082;2023-06-14T14:03:34;18.10;69.13
67641;SHT31;54434;50.096;20.082;2023-06-14T14:06:11;18.08;68.54
67641;SHT31;54434;50.096;20.082;2023-06-14T14:08:50;18.02;67.95
67641;SHT31;54434;50.096;20.082;2023-06-14T14:11:27;17.95;67.85
67641;SHT31;54434;50.096;20.082;2023-06-14T14:14:05;17.85;68.41
67641;SHT31;54434;50.096;20.082;2023-06-14T14:16:42;17.81;68.92
67641;SHT31;54434;50.096;20.082;2023-06-14T14:19:21;17.79;69.43
67641;SHT31;54434;50.096;20.082;2023-06-14T14:21:58;17.86;69.47
67641;SHT31;54434;50.096;20.082;2023-06-14T14:24:35;17.92;69.05
67641;SHT31;54434;50.096;20.082;2023-06-14T14:27:12;17.89;68.51
67641;SHT31;54434;50.096;20.082;2023-06-14T14:29:49;17.82;68.87
67641;SHT31;54434;50.096;20.082;2023-06-14T14:32:25;17.82;69.23
67641;SHT31;54434;50.096;20.082;2023-06-14T14:35:02;17.88;69.26
67641;SHT31;54434;50.096;20.082;2023-06-14T14:37:41;17.91;68.93
67641;SHT31;54434;50.096;20.082;2023-06-14T14:40:17;17.92;69.19
67641;SHT31;54434;50.096;20.082;2023-06-14T14:42:54;17.96;68.79
67641;SHT31;54434;50.096;20.082;2023-06-14T14:45:31;18.02;68.94
67641;SHT31;54434;50.096;20.082;2023-06-14T14:48:08;18.10;68.56
67641;SHT31;54434;50.096;20.082;2023-06-14T14:50:44;18.04;68.13
67641;SHT31;54434;50.096;20.082;2023-06-14T14:53:21;18.06;68.72
67641;SHT31;54434;50.096;20.082;2023-06-14T14:55:58;18.02;68.45
67641;SHT31;54434;50.096;20.082;2023-06-14T14:58:37;17.92;68.90
67641;SHT31;54434;50.096;20.082;2023-06-14T15:01:14;17.88;69.02
67641;SHT31;54434;50.096;20.082;2023-06-14T15:03:50;17.86;69.22
67641;SHT31;54434;50.096;20.082;2023-06-14T15:06:30;17.76;68.90
67641;SHT31;54434;50.096;20.082;2023-06-14T15:09:10;17.67;69.02
67641;SHT31;54434;50.096;20.082;2023-06-14T15:11:47;17.58;69.20
67641;SHT31;54434;50.096;20.082;2023-06-14T15:14:23;17.47;69.15
67641;SHT31;54434;50.096;20.082;2023-06-14T15:16:59;17.34;69.68
67641;SHT31;54434;50.096;20.082;2023-06-14T15:19:39;17.25;70.33
67641;SHT31;54434;50.096;20.082;2023-06-14T15:22:16;17.18;70.82
67641;SHT31;54434;50.096;20.082;2023-06-14T15:24:52;17.09;71.24
67641;SHT31;54434;50.096;20.082;2023-06-14T15:27:29;17.05;71.84
67641;SHT31;54434;50.096;20.082;2023-06-14T15:30:09;17.03;72.22
67641;SHT31;54434;50.096;20.082;2023-06-14T15:32:47;16.97;72.58
67641;SHT31;54434;50.096;20.082;2023-06-14T15:35:22;16.91;71.42
67641;SHT31;54434;50.096;20.082;2023-06-14T15:37:59;16.86;69.97
67641;SHT31;54434;50.096;20.082;2023-06-14T15:40:35;16.88;70.00
67641;SHT31;54434;50.096;20.082;2023-06-14T15:43:12;16.90;70.28
67641;SHT31;54434;50.096;20.082;2023-06-14T15:45:48;16.94;70.09
67641;SHT31;54434;50.096;20.082;2023-06-14T15:48:24;17.01;69.52
67641;SHT31;54434;50.096;20.082;2023-06-14T15:51:01;17.08;69.64
67641;SHT31;54434;50.096;20.082;2023-06-14T15:53:38;17.13;69.93
67641;SHT31;54434;50.096;20.082;2023-06-14T15:56:15;17.19;70.12
67641;SHT31;54434;50.096;20.082;2023-06-14T15:58:52;17.24;70.23
67641;SHT31;54434;50.096;20.082;2023-06-14T16:01:29;17.23;69.90
67641;SHT31;54434;50.096;20.082;2023-06-14T16:04:06;17.23;70.02
67641;SHT31;54434;50.096;20.082;2023-06-14T16:06:43;17.25;70.14
67641;SHT31;54434;50.096;20.082;2023-06-14T16:09:20;17.22;70.35
67641;SHT31;54434;50.096;20.082;2023-06-14T16:11:57;17.20;70.77
67641;SHT31;54434;50.096;20.082;2023-06-14T16:14:34;17.18;70.98
67641;SHT31;54434;50.096;20.082;2023-06-14T16:17:11;17.15;71.04
67641;SHT31;54434;50.096;20.082;2023-06-14T16:19:48;17.11;70.72
67641;SHT31;54434;50.096;20.082;2023-06-14T16:22:24;17.06;71.00